Date,TemperatureHighF,TemperatureAvgF,TemperatureLowF,DewpointHighF,DewpointAvgF,DewpointLowF,HumidityHigh,HumidityAvg,HumidityLow,PressureMaxIn,PressureMinIn,WindSpeedMaxMPH,WindSpeedAvgMPH,GustSpeedMaxMPH,PrecipitationSumIn
2013-1-1,35.0,28.1,23.0,32.0,21.2,14.0,91,72,64,0.00,40.00,7,2,10,0.00
2013-1-2,27.0,24.3,22.0,23.0,17.6,14.0,86,72,62,0.00,40.00,7,3,10,1.14
2013-1-3,31.0,27.6,21.0,21.0,16.6,10.0,67,61,54,0.00,40.00,91,8,0,0.00
2013-1-4,36.0,31.0,28.0,23.0,18.6,14.0,72,58,46,0.00,40.00,93,10,10,0.00
2013-1-5,39.0,31.4,27.0,28.0,23.9,21.0,80,71,60,0.00,40.00,6,3,10,0.00
2013-1-6,40.0,37.0,34.0,32.0,30.0,25.0,81,73,64,0.00,40.00,6,2,8,5.67
2013-1-7,40.0,34.0,29.0,27.0,25.0,23.0,77,67,56,0.00,40.00,91,6,8,0.00
2013-1-8,45.0,37.9,28.0,28.0,25.3,23.0,78,59,44,0.00,40.00,90,4,8,0.00
2013-1-9,50.0,41.6,34.0,37.0,29.6,27.0,77,62,41,0.00,40.00,16,8,24,0.00
2013-1-10,42.0,36.7,29.0,34.0,28.8,27.0,91,73,58,0.00,40.00,4,1,6,0.00
2013-1-11,51.0,44.6,39.0,46.0,34.4,25.0,93,69,50,0.00,40.00,11,7,14,1.14
2013-1-12,63.0,57.7,53.0,55.0,51.0,48.0,91,81,69,0.00,40.00,93,4,5,0.00
2013-1-13,58.0,57.2,56.0,55.0,53.6,52.0,91,89,86,0.00,40.00,4,2,5,0.00
2013-1-15,35.0,30.3,28.0,25.0,20.8,18.0,71,65,56,0.00,40.00,91,3,2,0.00
2013-1-16,39.0,32.7,29.0,27.0,22.6,18.0,80,64,49,0.00,40.00,11,2,14,1.14
2013-1-17,39.0,33.9,27.0,30.0,25.7,16.0,80,69,62,0.00,40.00,11,3,14,1.14
2013-1-18,38.0,27.4,20.0,19.0,13.9,5.0,69,54,41,0.00,40.00,11,4,14,1.14
2013-1-19,53.0,45.6,37.0,28.0,23.1,16.0,45,39,33,0.00,40.00,11,6,17,0.00
2013-1-20,50.0,30.5,22.0,32.0,17.8,10.0,69,57,42,0.00,40.00,24,11,30,11.34
2013-1-21,24.0,20.7,19.0,19.0,15.4,10.0,90,77,56,0.00,40.00,11,4,15,7.39
2013-1-22,11.0,9.1,8.0,7.0,4.9,0.0,86,79,63,0.00,40.00,50,9,0,2.28
2013-1-23,15.0,13.8,13.0,12.0,10.5,10.0,86,85,84,0.00,40.00,89,5,1,0.00
2013-1-24,22.0,16.7,9.0,16.0,8.9,3.0,88,69,46,0.00,40.00,7,1,8,0.00
2013-1-25,20.0,13.5,9.0,18.0,8.4,5.0,85,76,68,0.00,40.00,11,2,6,10.77
2013-1-26,27.0,22.6,17.0,25.0,19.1,14.0,89,83,73,0.00,40.00,2,0,4,13.03
2013-1-27,32.0,24.2,15.0,27.0,16.9,12.0,88,71,54,0.00,40.00,7,2,10,2.83
2013-1-28,51.0,42.0,29.0,48.0,38.8,27.0,93,90,81,0.00,40.00,11,5,14,9.64
2013-1-29,46.0,41.5,39.0,45.0,39.1,36.0,97,95,91,0.00,40.00,6,2,8,9.06
2013-1-30,56.0,41.9,38.0,48.0,37.4,25.0,88,78,69,0.00,40.00,154,30,24,0.00
2013-1-31,39.0,25.2,19.0,34.0,20.0,12.0,91,78,59,0.00,40.00,18,12,34,9.09
2013-2-1,22.0,18.9,14.0,18.0,13.6,5.0,91,76,59,0.00,40.00,15,7,22,5.70
2013-2-2,23.0,17.5,13.0,23.0,13.4,5.0,93,81,67,0.00,40.00,6,3,10,20.97
2013-2-3,23.0,20.4,19.0,21.0,17.6,12.0,93,85,68,0.00,40.00,11,4,17,12.47
2013-2-4,25.0,20.6,18.0,23.0,14.0,9.0,91,73,60,0.00,40.00,9,5,15,3.97
2013-2-5,31.0,25.2,20.0,25.0,21.2,19.0,93,83,62,0.00,40.00,3,1,6,1.14
2013-2-6,33.0,26.1,16.0,30.0,18.6,10.0,89,71,50,0.00,40.00,9,2,12,0.00
2013-2-7,45.0,32.1,16.0,28.0,19.8,12.0,81,59,41,0.00,40.00,7,3,10,0.00
2013-2-8,40.0,31.2,22.0,34.0,27.5,19.0,94,85,68,0.00,40.00,13,4,15,8.50
2013-2-9,32.0,24.2,17.0,23.0,18.7,14.0,88,77,58,0.00,40.00,6,1,8,1.14
2013-2-10,48.0,32.7,13.0,25.0,18.1,10.0,89,56,31,0.00,40.00,9,4,12,0.00
2013-2-11,52.0,41.6,36.0,43.0,32.3,25.0,90,70,44,0.00,40.00,22,10,24,0.00
2013-2-12,36.0,32.0,26.0,28.0,25.3,23.0,86,73,66,0.00,40.00,14,7,21,0.00
2013-2-13,38.0,30.8,24.0,30.0,25.6,21.0,89,77,59,0.00,40.00,3,1,4,0.00
2013-2-14,42.0,34.2,25.0,34.0,29.2,23.0,88,81,64,0.00,40.00,15,4,21,4.53
2013-2-15,41.0,34.3,29.0,30.0,25.2,18.0,76,67,50,0.00,40.00,17,6,28,3.97
2013-2-16,33.0,26.4,21.0,25.0,14.3,7.0,84,60,37,0.00,40.00,89,2,0,0.00
2013-2-17,23.0,20.3,18.0,21.0,15.7,10.0,93,80,63,0.00,40.00,90,3,4,3.42
2013-2-18,43.0,35.4,16.0,28.0,19.8,10.0,73,51,44,0.00,40.00,11,8,15,0.00
2013-2-19,46.0,38.6,28.0,37.0,31.3,21.0,90,76,54,0.00,40.00,94,10,21,10.20
2013-2-20,24.0,21.2,19.0,16.0,13.3,9.0,85,68,59,0.00,40.00,12,7,14,0.00
2013-2-21,24.0,22.1,19.0,23.0,16.1,14.0,78,72,66,0.00,40.00,151,4,2,2.83
2013-2-22,38.0,29.5,18.0,34.0,24.8,14.0,93,82,67,0.00,40.00,8,4,12,0.00
2013-2-23,39.0,34.2,30.0,34.0,27.7,23.0,90,75,59,0.00,40.00,9,3,17,0.00
2013-2-24,34.0,31.9,29.0,28.0,25.1,23.0,77,73,68,0.00,40.00,11,5,15,0.00
2013-2-25,43.0,35.6,29.0,28.0,24.6,21.0,90,62,45,0.00,40.00,46,3,1,0.00
2013-2-26,42.0,33.1,25.0,34.0,25.6,21.0,89,72,56,0.00,40.00,9,3,12,10.19
2013-3-1,32.0,28.7,25.0,28.0,24.1,19.0,86,79,75,0.00,40.00,45,2,2,0.00
2013-3-2,30.0,26.3,24.0,27.0,22.6,19.0,86,82,77,0.00,40.00,3,1,4,2.28
2013-3-3,30.0,26.2,24.0,27.0,22.4,16.0,91,82,64,0.00,40.00,6,2,14,27.19
2013-3-4,34.0,26.5,20.0,23.0,19.1,18.0,85,71,55,0.00,40.00,10,2,14,1.14
2013-3-5,40.0,27.2,16.0,30.0,22.9,14.0,91,81,60,0.00,40.00,6,2,8,0.00
2013-3-6,43.0,35.0,30.0,32.0,29.4,27.0,85,78,60,0.00,40.00,7,3,10,0.00
2013-3-7,40.0,34.5,30.0,34.0,30.9,28.0,90,86,78,0.00,40.00,6,1,8,12.48
2013-3-8,39.0,33.4,28.0,32.0,29.5,25.0,90,83,73,0.00,40.00,3,1,6,2.83
2013-3-9,54.0,40.2,24.0,34.0,29.7,23.0,93,67,41,0.00,40.00,45,2,2,0.00
2013-3-10,67.0,56.5,47.0,36.0,31.5,27.0,49,39,31,0.00,40.00,9,5,14,0.00
2013-3-11,60.0,54.6,42.0,48.0,38.5,32.0,94,59,34,0.00,40.00,12,6,14,15.86
2013-3-12,45.0,39.1,34.0,39.0,32.0,25.0,85,76,67,0.00,40.00,91,8,14,0.00
2013-3-13,36.0,31.5,27.0,30.0,25.8,18.0,93,76,56,0.00,40.00,17,6,24,4.53
2013-3-14,34.0,29.5,26.0,23.0,18.4,14.0,77,61,51,0.00,40.00,9,4,24,0.00
2013-3-15,40.0,35.0,30.0,32.0,28.3,21.0,93,75,62,0.00,40.00,13,4,19,2.28
2013-3-16,36.0,31.1,28.0,34.0,29.4,27.0,95,92,84,0.00,40.00,5,1,19,9.63
2013-3-17,34.0,29.3,25.0,28.0,22.4,16.0,91,73,51,0.00,40.00,6,2,8,0.00
2013-3-18,41.0,32.9,24.0,37.0,27.8,16.0,94,81,64,0.00,40.00,10,5,14,19.26
2013-3-19,41.0,31.2,28.0,39.0,23.6,19.0,94,72,59,0.00,40.00,16,10,21,2.28
2013-3-20,31.0,28.6,24.0,28.0,18.6,14.0,93,64,50,0.00,40.00,15,7,19,0.00
2013-3-21,29.0,26.7,22.0,28.0,23.9,18.0,94,85,71,0.00,40.00,50,8,19,10.20
2013-3-22,33.0,29.5,24.0,27.0,20.1,18.0,90,67,56,0.00,40.00,93,5,0,0.00
2013-3-23,40.0,30.1,18.0,28.0,22.3,16.0,89,71,49,0.00,40.00,4,1,8,0.00
2013-3-24,36.0,28.9,19.0,27.0,22.4,18.0,90,75,53,0.00,40.00,7,3,10,0.00
2013-3-25,37.0,33.2,30.0,32.0,30.5,27.0,97,88,75,0.00,40.00,6,3,10,14.20
2013-3-26,40.0,36.0,33.0,34.0,32.0,28.0,93,86,73,0.00,40.00,9,4,14,8.49
2013-3-27,42.0,38.1,33.0,32.0,29.5,27.0,93,71,53,0.00,40.00,50,6,14,5.67
2013-3-28,37.0,34.9,33.0,32.0,32.0,32.0,94,91,88,0.00,40.00,2,1,4,8.50
2013-3-29,50.0,44.4,32.0,32.0,26.5,21.0,73,48,34,0.00,40.00,91,5,0,0.00
2013-3-30,56.0,41.6,28.0,28.0,24.5,19.0,84,54,27,0.00,40.00,6,1,8,0.00
2013-3-31,55.0,47.8,41.0,45.0,30.9,-99.9,85,55,36,0.00,40.00,7,3,10,0.00
2013-4-1,49.0,36.8,31.0,41.0,23.7,12.0,86,59,33,0.00,40.00,13,5,15,1.14
2013-4-2,38.0,32.5,28.0,21.0,16.0,10.0,64,49,33,0.00,40.00,14,4,17,0.00
2013-4-3,37.0,32.2,19.0,23.0,16.2,0.0,67,50,36,0.00,40.00,7,2,17,0.00
2013-4-4,57.0,36.1,25.0,21.0,13.9,7.0,67,43,15,0.00,40.00,6,2,12,0.00
2013-4-8,74.0,69.0,60.0,52.0,46.3,41.0,59,46,36,0.00,40.00,11,6,17,4.53
2013-4-9,78.0,58.1,45.0,54.0,43.9,39.0,85,64,36,0.00,40.00,14,3,17,0.00
2013-4-10,56.0,47.4,40.0,52.0,44.1,37.0,95,91,72,0.00,40.00,8,2,15,14.17
2013-4-11,42.0,39.7,37.0,39.0,36.7,34.0,95,93,90,0.00,40.00,7,4,12,7.36
2013-4-12,52.0,42.4,39.0,50.0,37.0,32.0,95,84,64,0.00,40.00,17,5,22,3.97
2013-4-13,44.0,40.8,37.0,37.0,33.2,28.0,89,75,58,0.00,40.00,12,6,22,2.83
2013-4-14,51.0,43.0,33.0,36.0,32.2,30.0,85,67,53,0.00,40.00,6,1,19,0.00
2013-4-15,73.0,60.4,47.0,48.0,41.3,32.0,67,52,38,0.00,40.00,12,5,17,0.00
2013-4-16,67.0,56.4,50.0,57.0,49.3,46.0,94,81,64,0.00,40.00,10,4,17,10.20
2013-4-17,58.0,53.9,50.0,48.0,35.5,28.0,94,53,40,0.00,40.00,47,4,14,0.00
2013-4-18,86.0,68.9,47.0,59.0,51.5,36.0,81,59,31,0.00,40.00,14,6,17,0.00
2013-4-19,72.0,54.6,41.0,59.0,43.1,27.0,94,67,51,0.00,40.00,16,8,22,2.83
2013-4-20,43.0,37.6,33.0,32.0,26.6,21.0,93,63,44,0.00,40.00,15,7,22,6.25
2013-4-21,45.0,37.3,29.0,30.0,26.8,23.0,89,65,42,0.00,40.00,8,2,19,0.00
2013-4-22,66.0,50.5,34.0,34.0,29.4,23.0,78,46,27,0.00,40.00,7,3,12,0.00
2013-4-23,74.0,59.0,43.0,37.0,32.5,25.0,62,39,24,0.00,40.00,9,5,14,0.00
2013-4-24,65.0,47.9,37.0,54.0,40.9,34.0,94,82,36,0.00,40.00,10,4,14,14.19
2013-4-25,55.0,42.7,33.0,41.0,33.4,27.0,91,73,36,0.00,40.00,11,3,14,2.83
2013-4-26,56.0,45.4,32.0,37.0,32.1,30.0,93,63,40,0.00,40.00,5,1,14,0.00
2013-4-27,69.0,55.0,40.0,39.0,32.8,28.0,72,45,24,0.00,40.00,6,2,8,0.00
2013-4-28,62.0,56.3,51.0,54.0,43.8,-99.9,91,70,42,0.00,40.00,9,3,12,8.50
2013-4-29,65.0,58.3,54.0,55.0,51.5,48.0,90,81,63,0.00,40.00,8,3,12,0.00
2013-4-30,76.0,64.4,55.0,55.0,52.2,48.0,94,70,40,0.00,40.00,8,3,12,0.00
2013-5-1,80.0,68.1,56.0,54.0,48.8,45.0,78,55,31,0.00,40.00,9,4,12,0.00
2013-5-2,79.0,67.5,57.0,45.0,37.7,32.0,49,35,22,0.00,40.00,6,3,12,0.00
2013-5-3,78.0,68.0,57.0,41.0,35.9,30.0,50,33,20,0.00,40.00,9,5,12,0.00
2013-5-4,74.0,63.4,54.0,41.0,36.9,32.0,64,41,22,0.00,40.00,7,4,12,0.00
2013-5-5,76.0,64.3,52.0,43.0,37.2,23.0,66,40,16,0.00,40.00,9,3,12,0.00
2013-5-6,75.0,62.4,50.0,48.0,36.3,25.0,62,40,23,0.00,40.00,7,3,12,0.00
2013-5-7,74.0,64.2,53.0,57.0,51.3,48.0,89,67,41,0.00,40.00,6,2,10,0.00
2013-5-8,74.0,63.2,55.0,55.0,53.2,50.0,93,74,46,0.00,40.00,4,1,8,1.14
2013-5-9,77.0,64.4,54.0,57.0,51.5,41.0,94,70,29,0.00,40.00,3,1,6,0.00
2013-5-10,75.0,63.7,52.0,61.0,51.0,-99.9,94,71,42,0.00,40.00,7,2,10,3.97
2013-5-11,55.0,48.2,43.0,48.0,43.2,41.0,94,86,71,0.00,40.00,11,3,14,19.26
2013-5-12,50.0,43.5,36.0,43.0,31.4,-99.9,91,65,42,0.00,40.00,19,7,24,0.00
2013-5-13,51.0,42.4,36.0,32.0,27.7,23.0,84,55,36,0.00,40.00,8,2,24,0.00
2013-5-14,57.0,47.5,35.0,39.0,32.4,27.0,84,57,45,0.00,40.00,9,4,15,0.00
2013-5-15,82.0,66.4,52.0,57.0,47.0,37.0,78,54,31,0.00,40.00,18,6,22,0.00
2013-5-16,79.0,60.3,50.0,52.0,25.0,-99.9,90,53,16,0.00,40.00,7,2,22,0.00
2013-5-17,69.0,59.8,48.0,48.0,39.1,-99.9,81,56,37,0.00,40.00,6,2,12,0.00
2013-5-18,76.0,65.0,55.0,54.0,45.9,41.0,71,53,34,0.00,40.00,5,2,8,0.00
2013-5-19,84.0,71.9,60.0,61.0,57.7,48.0,84,65,45,0.00,40.00,7,3,10,0.00
2013-5-20,89.0,76.2,63.0,66.0,62.2,57.0,86,66,42,0.00,40.00,6,2,10,0.00
2013-5-21,88.0,77.1,70.0,68.0,64.0,59.0,88,69,40,0.00,40.00,7,2,12,0.00
2013-5-22,87.0,77.6,67.0,64.0,59.8,54.0,89,58,37,0.00,40.00,8,2,12,0.00
2013-5-23,72.0,61.3,44.0,63.0,55.4,41.0,93,84,66,0.00,40.00,8,2,12,4.53
2013-5-24,47.0,43.7,38.0,41.0,34.5,32.0,94,73,58,0.00,40.00,5,2,12,0.00
2013-5-25,59.0,48.1,35.0,41.0,35.1,32.0,93,66,36,0.00,40.00,9,2,12,0.00
2013-5-26,65.0,51.3,36.0,41.0,35.5,30.0,91,61,28,0.00,40.00,4,1,12,0.00
2013-5-27,70.0,54.0,38.0,52.0,39.5,32.0,91,66,27,0.00,40.00,4,1,10,5.11
2013-5-28,68.0,56.8,52.0,61.0,52.7,48.0,94,89,80,0.00,40.00,6,3,8,9.64
2013-6-4,67.0,60.6,49.0,46.0,41.4,36.0,85,51,32,0.00,40.00,6,2,10,0.00
2013-6-5,71.0,59.9,47.0,52.0,46.1,42.0,88,63,36,0.00,40.00,7,3,16,0.00
2013-6-6,60.0,57.0,54.0,58.0,54.0,49.0,94,89,69,0.00,40.00,6,2,12,3.30
2013-6-7,60.0,55.9,54.0,55.0,53.2,53.0,94,91,79,0.00,40.00,4,2,9,0.00
2013-6-8,69.0,59.6,53.0,54.0,52.5,49.0,92,78,50,0.00,40.00,9,2,16,0.00
2013-6-9,79.0,65.6,51.0,60.0,54.1,49.0,91,68,42,0.00,40.00,6,2,12,0.00
2013-6-10,74.0,68.2,63.0,68.0,63.7,56.0,92,85,62,0.00,40.00,8,2,17,12.27
2013-6-11,74.0,66.6,62.0,63.0,61.3,60.0,93,83,61,0.00,40.00,12,4,19,0.00
2013-6-12,76.0,68.5,61.0,67.0,62.3,58.0,91,81,66,0.00,40.00,4,1,9,0.00
2013-6-13,68.0,63.6,58.0,65.0,60.0,55.0,93,88,69,0.00,40.00,11,3,24,3.93
2013-6-14,72.0,61.5,55.0,58.0,54.6,51.0,92,79,50,0.00,40.00,8,2,14,0.00
2013-6-15,80.0,64.6,47.0,58.0,50.7,45.0,92,65,33,0.00,40.00,6,2,13,0.00
2013-6-16,79.0,70.6,64.0,64.0,60.4,55.0,83,70,56,0.00,40.00,16,6,26,0.55
2013-6-17,82.0,71.6,61.0,65.0,61.1,56.0,89,71,46,0.00,40.00,11,2,18,1.10
2013-6-18,71.0,63.8,55.0,60.0,55.6,46.0,94,76,53,0.00,40.00,10,3,17,1.10
2013-6-19,73.0,60.8,49.0,54.0,47.9,40.0,91,65,34,0.00,40.00,6,2,11,0.00
2013-6-20,77.0,61.9,50.0,53.0,48.2,41.0,87,64,27,0.00,40.00,7,2,12,0.00
2013-6-22,87.0,81.3,75.0,66.0,64.5,63.0,71,57,46,0.00,40.00,7,2,14,0.00
2013-6-23,88.0,79.5,71.0,68.0,66.1,64.0,81,64,45,0.00,40.00,4,2,9,0.00
2013-6-24,89.0,81.1,70.0,67.0,64.1,61.0,77,57,44,0.00,40.00,9,3,14,0.00
2013-6-25,88.0,75.1,67.0,67.0,64.5,60.0,93,70,39,0.00,40.00,12,4,23,2.79
2013-6-26,85.0,74.3,66.0,68.0,65.3,63.0,93,74,50,0.00,40.00,9,3,17,1.69
2013-6-27,83.0,71.7,66.0,68.0,66.0,63.0,93,83,53,0.00,40.00,4,2,14,0.55
2013-6-28,78.0,71.4,65.0,66.0,63.7,62.0,92,77,58,0.00,40.00,10,3,17,0.00
2013-6-29,68.0,65.2,64.0,64.0,63.0,62.0,94,92,86,0.00,40.00,2,1,6,2.20
2013-7-1,70.0,67.8,65.0,64.0,62.3,60.0,85,82,80,0.00,40.00,6,4,12,0.00
2013-7-2,77.0,68.9,62.0,66.0,61.9,59.0,88,78,63,0.00,40.00,6,2,12,0.00
2013-7-3,84.0,75.9,64.0,71.0,67.3,61.0,93,75,60,0.00,40.00,4,2,10,0.00
2013-7-4,74.0,70.2,69.0,68.0,66.8,66.0,91,89,82,0.00,40.00,3,1,7,0.00
2013-7-5,80.0,74.0,69.0,67.0,66.1,65.0,92,77,63,0.00,40.00,6,-34,12,0.00
2013-7-6,74.0,69.7,68.0,70.0,66.8,65.0,93,90,85,0.00,40.00,2,1,6,0.55
2013-7-7,79.0,73.0,70.0,69.0,66.9,64.0,89,82,60,0.00,40.00,6,2,12,0.00
2013-7-8,85.0,74.8,69.0,69.0,59.0,-99.9,92,69,57,0.00,40.00,4,3,11,2.20
2013-7-9,69.0,69.0,69.0,67.0,66.4,66.0,92,91,90,0.00,40.00,4,2,9,0.00
2013-7-16,90.0,82.5,75.0,72.0,71.1,71.0,86,69,54,0.00,40.00,2,2,7,0.00
2013-7-17,93.0,83.3,73.0,74.0,70.9,69.0,88,67,46,0.00,40.00,6,3,12,0.00
2013-7-18,93.0,83.2,76.0,75.0,71.3,66.0,84,69,44,0.00,40.00,7,3,16,0.00
2013-7-19,95.0,84.2,73.0,71.0,69.6,65.0,85,63,42,0.00,40.00,14,4,23,0.00
2013-7-20,77.0,66.6,67.0,70.0,60.0,-99.9,94,87,73,0.00,40.00,7,2,12,4.48
2013-7-21,80.0,75.7,67.0,65.0,64.3,63.0,92,69,55,0.00,40.00,3,2,7,0.00
2013-7-22,79.0,72.8,63.0,70.0,66.2,60.0,92,80,67,0.00,40.00,3,2,6,0.00
2013-7-23,82.0,71.7,65.0,68.0,63.8,58.0,92,77,54,0.00,40.00,9,3,16,2.24
2013-7-24,72.0,64.6,55.0,58.0,51.2,48.0,89,62,43,0.00,40.00,6,2,13,0.00
2013-7-25,76.0,65.6,52.0,54.0,49.7,45.0,89,60,33,0.00,40.00,6,3,14,0.00
2013-7-26,81.0,68.6,55.0,60.0,55.5,51.0,87,65,41,0.00,40.00,4,2,11,0.00
2013-7-27,69.0,64.4,62.0,64.0,58.5,56.0,88,81,74,0.00,40.00,4,2,7,0.55
2013-7-28,69.0,63.1,58.0,60.0,53.9,45.0,92,74,43,0.00,40.00,8,3,19,0.00
2013-7-29,71.0,65.8,58.0,57.0,53.6,49.0,88,65,45,0.00,40.00,10,4,18,0.00
2013-7-30,77.0,66.2,55.0,58.0,56.0,52.0,91,71,49,0.00,40.00,4,2,9,0.00
2013-7-31,79.0,69.5,60.0,64.0,59.4,55.0,87,71,51,0.00,40.00,5,2,9,0.00
2013-8-1,75.0,68.5,64.0,64.0,62.3,60.0,91,81,63,0.00,40.00,8,3,16,1.10
2013-8-2,64.0,62.6,62.0,60.0,58.9,58.0,89,87,85,0.00,40.00,3,1,6,0.00
2013-8-25,83.0,62.0,58.0,64.0,43.4,-99.9,86,66,40,0.00,40.00,2,1,9,0.00
2013-8-26,85.0,75.8,71.0,62.0,58.4,56.0,62,55,42,0.00,40.00,7,3,13,0.00
2013-8-27,80.0,76.0,73.0,69.0,67.7,66.0,83,76,62,0.00,40.00,7,6,17,0.00
2013-8-28,71.0,71.0,71.0,68.0,68.0,68.0,91,91,91,0.00,40.00,2,2,4,0.00
2013-8-29,83.0,75.1,67.0,70.0,66.5,65.0,93,76,56,0.00,40.00,4,2,8,0.00
2013-8-30,86.0,74.5,66.0,69.0,65.9,63.0,92,76,51,0.00,40.00,6,2,11,0.00
2013-8-31,79.0,73.8,70.0,70.0,67.3,66.0,90,80,68,0.00,40.00,4,2,11,0.00
2013-9-1,80.0,66.0,66.0,70.0,54.3,-99.9,92,80,68,0.00,40.00,2,1,9,0.00
2013-9-2,75.0,72.8,72.0,68.0,66.5,66.0,81,80,76,0.00,40.00,2,1,9,0.00
2013-9-3,65.0,64.4,64.0,56.0,55.4,55.0,71,71,71,0.00,40.00,4,3,10,0.00
2013-9-4,75.0,71.0,67.0,56.0,54.7,52.0,68,57,44,0.00,40.00,9,6,16,0.00
2013-9-5,69.0,64.8,58.0,62.0,51.9,45.0,80,63,44,0.00,40.00,4,2,12,0.00
2013-9-6,71.0,62.5,53.0,50.0,46.8,43.0,85,58,39,0.00,40.00,4,2,7,0.00
2013-9-7,78.0,69.0,55.0,64.0,56.8,45.0,79,65,54,0.00,40.00,6,3,10,0.00
2013-9-8,71.0,61.8,55.0,64.0,48.3,-99.9,84,72,51,0.00,40.00,4,1,9,0.00
2013-9-9,72.0,66.6,53.0,67.0,61.0,48.0,85,82,72,0.00,40.00,3,2,9,0.00
2013-9-10,95.0,91.0,86.0,71.0,69.0,67.0,57,49,40,0.00,40.00,6,4,14,0.00
2013-9-11,82.0,80.5,80.0,71.0,70.5,69.0,73,71,68,0.00,40.00,2,1,7,0.00
2013-9-12,71.0,67.7,64.0,65.0,61.6,58.0,86,81,69,0.00,40.00,2,2,6,0.00
2013-9-13,59.0,58.4,58.0,46.0,45.4,44.0,63,61,57,0.00,40.00,6,4,14,0.00
2013-9-14,60.0,55.5,51.0,47.0,45.0,43.0,85,68,52,0.00,40.00,4,2,9,0.00
2013-9-15,63.0,47.3,49.0,55.0,25.0,-99.9,84,64,69,0.00,40.00,2,1,6,0.00
2013-9-16,60.0,58.0,56.0,54.0,53.5,53.0,92,84,77,0.00,40.00,6,3,12,0.00
2013-9-17,52.0,52.0,52.0,48.0,48.0,48.0,86,86,86,0.00,40.00,1,1,4,0.00
2013-9-18,49.0,49.0,49.0,43.0,43.0,43.0,78,78,78,0.00,40.00,1,1,4,0.00
2013-9-19,76.0,69.1,59.0,64.0,61.8,56.0,90,78,63,0.00,40.00,5,3,14,0.00
2013-9-20,76.0,71.3,63.0,68.0,65.7,61.0,91,82,77,0.00,40.00,4,4,12,0.00
2013-9-21,68.0,60.6,56.0,66.0,57.8,53.0,94,91,79,0.00,40.00,2,2,7,1.69
2013-9-23,58.0,56.9,56.0,44.0,43.3,43.0,62,60,58,0.00,40.00,3,2,7,0.00
2013-9-25,68.0,56.8,43.0,53.0,49.2,41.0,92,77,58,0.00,40.00,4,2,9,0.00
2013-9-26,68.0,56.2,47.0,51.0,48.5,45.0,92,76,53,0.00,40.00,4,1,8,0.00
2013-9-27,70.0,63.2,50.0,54.0,51.7,47.0,89,67,52,0.00,40.00,6,4,12,0.00
2013-9-28,75.0,61.8,51.0,53.0,51.1,49.0,92,70,42,0.00,40.00,5,2,9,0.00
2013-9-29,70.0,55.9,53.0,60.0,44.7,-99.9,84,74,62,0.00,40.00,6,4,15,0.00
2013-9-30,67.0,62.8,58.0,61.0,58.9,56.0,91,86,79,0.00,40.00,3,2,7,0.00
2013-10-1,62.0,61.0,60.0,57.0,57.0,57.0,90,87,84,0.00,40.00,1,1,5,0.00
2013-10-2,75.0,66.1,56.0,63.0,58.7,53.0,90,77,62,0.00,40.00,7,3,13,0.00
2013-10-3,78.0,67.7,55.0,66.0,61.7,53.0,93,82,64,0.00,40.00,7,2,22,0.00
2013-10-4,77.0,71.7,69.0,66.0,65.2,65.0,86,80,68,0.00,40.00,6,2,11,1.10
2013-10-5,77.0,71.7,69.0,68.0,66.9,65.0,92,85,66,0.00,40.00,2,1,6,0.00
2013-10-6,78.0,75.5,74.0,65.0,63.5,63.0,68,65,61,0.00,40.00,6,3,14,0.00
2013-10-7,56.0,55.2,52.0,48.0,45.7,41.0,73,70,59,0.00,40.00,7,5,19,0.00
2013-10-10,67.0,51.9,46.0,49.0,43.0,39.0,90,72,48,0.00,40.00,3,2,7,0.00
2013-10-11,72.0,56.6,45.0,53.0,46.4,43.0,92,72,38,0.00,40.00,4,2,9,0.00
2013-10-12,74.0,60.9,51.0,59.0,52.7,43.0,91,75,58,0.00,40.00,6,2,8,0.00
2013-10-13,69.0,61.4,59.0,60.0,54.4,-99.9,92,83,71,0.00,40.00,6,2,12,1.10
2013-10-14,62.0,55.7,44.0,54.0,46.5,41.0,90,72,53,0.00,40.00,9,2,12,0.00
2013-10-15,67.0,56.3,42.0,58.0,51.1,40.0,91,83,69,0.00,40.00,6,3,15,0.00
2013-10-16,70.0,61.1,54.0,60.0,56.3,46.0,93,84,71,0.00,40.00,6,3,15,3.94
2013-10-17,61.0,50.9,46.0,50.0,45.8,43.0,92,83,51,0.00,40.00,7,2,17,2.83
2013-10-18,63.0,50.7,45.0,46.0,43.4,39.0,93,78,42,0.00,40.00,7,4,17,4.48
2013-10-19,54.0,49.1,46.0,45.0,43.2,42.0,92,80,64,0.00,40.00,5,3,10,2.79
2013-10-20,58.0,52.6,47.0,40.0,37.8,33.0,69,57,40,0.00,40.00,10,4,17,0.00
2013-10-21,65.0,55.7,46.0,50.0,41.7,37.0,89,62,35,0.00,40.00,8,4,19,0.55
2013-10-22,50.0,45.1,41.0,47.0,35.7,28.0,92,70,45,0.00,40.00,10,4,19,0.00
2013-10-23,47.0,43.1,39.0,40.0,33.3,27.0,85,69,47,0.00,40.00,7,3,14,1.10
2013-10-24,40.0,37.7,34.0,35.0,33.5,32.0,90,84,79,0.00,40.00,6,4,15,0.55
2013-10-25,45.0,43.4,42.0,38.0,33.9,31.0,83,69,60,0.00,40.00,9,5,16,0.00
2013-10-27,49.0,47.1,45.0,32.0,30.6,30.0,58,53,48,0.00,40.00,6,4,11,0.00
2013-10-28,55.0,48.0,42.0,42.0,38.7,35.0,80,70,54,0.00,40.00,6,3,12,0.00
2013-10-29,56.0,51.1,41.0,36.0,33.8,32.0,83,52,40,0.00,40.00,4,2,8,0.00
2013-10-30,65.0,49.5,40.0,44.0,38.2,34.0,84,67,37,0.00,40.00,4,2,9,0.00
2013-10-31,67.0,59.6,55.0,57.0,54.7,48.0,92,84,68,0.00,40.00,10,6,24,5.63
2013-11-1,52.0,52.0,52.0,40.0,40.0,40.0,65,65,65,0.00,40.00,12,12,25,0.00
2013-11-3,42.0,38.6,32.0,30.0,28.1,25.0,75,65,59,0.00,40.00,5,3,12,0.00
2013-11-4,44.0,39.4,33.0,21.0,18.1,16.0,60,43,32,0.00,40.00,7,4,12,0.00
2013-11-5,55.0,54.8,54.0,36.0,35.8,35.0,48,47,47,0.00,40.00,6,6,11,0.00
2013-11-6,64.0,64.0,64.0,45.0,45.0,45.0,49,49,49,0.00,40.00,4,4,21,0.00
2013-11-7,41.0,41.0,41.0,28.0,28.0,28.0,60,60,60,0.00,40.00,6,6,0,0.00
2013-11-8,42.0,41.1,40.0,29.0,27.0,24.0,64,57,49,0.00,40.00,7,5,16,0.00
2013-11-9,56.0,55.0,51.0,33.0,31.8,27.0,40,40,39,0.00,40.00,6,4,13,0.00
2013-11-10,46.0,45.1,45.0,30.0,29.5,29.0,54,53,53,0.00,40.00,12,10,27,0.00
2013-11-12,36.0,33.4,32.0,26.0,23.4,21.0,71,67,63,0.00,40.00,4,3,11,0.00
2013-11-13,33.0,33.0,33.0,21.0,18.0,15.0,60,53,46,0.00,40.00,3,3,11,0.00
2013-11-14,49.0,37.8,34.0,20.0,15.5,14.0,44,41,31,0.00,40.00,4,3,12,0.00
2013-11-15,52.0,47.6,39.0,28.0,24.2,20.0,55,40,28,0.00,40.00,4,2,12,0.00
2013-11-16,58.0,50.9,39.0,47.0,39.8,28.0,72,65,56,0.00,40.00,10,5,21,0.00
2013-11-17,63.0,61.8,61.0,54.0,53.6,53.0,76,74,72,0.00,40.00,13,10,29,0.00
2013-11-20,46.0,40.8,31.0,23.0,17.8,15.0,69,41,28,0.00,40.00,7,5,19,0.00
2013-11-26,35.0,32.6,31.0,30.0,26.1,16.0,93,78,46,0.00,40.00,6,2,16,6.05
2013-11-27,33.0,28.3,24.0,30.0,20.7,15.0,93,73,62,0.00,40.00,9,4,17,1.10
2013-11-28,29.0,26.7,25.0,21.0,17.2,15.0,82,67,59,0.00,40.00,7,3,16,0.55
2013-11-29,33.0,29.2,26.0,23.0,20.2,17.0,75,68,60,0.00,40.00,2,1,6,0.55
2013-11-30,39.0,31.0,24.0,24.0,17.8,-99.9,74,62,50,0.00,40.00,9,5,18,0.00
2013-12-1,43.0,36.9,31.0,29.0,26.7,24.0,75,66,54,0.00,40.00,7,2,12,0.00
2013-12-2,40.0,36.9,33.0,33.0,30.9,29.0,84,78,75,0.00,40.00,4,1,6,0.00
2013-12-3,44.0,41.8,40.0,36.0,34.3,32.0,76,75,73,0.00,40.00,4,2,9,0.00
2013-12-4,56.0,45.1,41.0,45.0,37.6,36.0,82,75,62,0.00,40.00,6,4,12,0.00
2013-12-5,57.0,43.4,38.0,50.0,35.2,30.0,77,73,68,0.00,40.00,12,8,22,0.00
2013-12-6,32.0,32.0,32.0,23.0,22.1,22.0,67,66,65,0.00,40.00,2,1,5,0.00
2013-12-7,25.0,24.3,24.0,15.0,14.7,14.0,66,65,63,0.00,40.00,2,1,7,0.00
2013-12-8,27.0,26.3,26.0,15.0,14.1,14.0,61,60,57,0.00,40.00,6,5,10,0.00
2013-12-9,34.0,31.7,30.0,23.0,21.5,20.0,68,65,62,0.00,40.00,11,7,20,0.00
2013-12-10,28.0,25.0,22.0,16.0,9.6,2.0,76,52,32,0.00,40.00,17,9,29,0.00
2013-12-11,24.0,21.4,19.0,21.0,14.8,10.0,91,75,61,0.00,40.00,11,5,17,10.62
2013-12-12,20.0,17.1,13.0,10.0,3.5,-4.0,84,55,34,0.00,40.00,12,6,20,0.00
2013-12-13,31.0,24.3,19.0,18.0,14.1,6.0,79,64,56,0.00,40.00,9,4,18,0.00
2013-12-14,25.0,23.4,22.0,20.0,20.0,20.0,90,87,80,0.00,40.00,4,2,6,3.85
2013-12-24,20.0,18.3,13.0,17.0,11.8,7.0,89,75,61,0.00,40.00,12,5,20,9.56
2013-12-25,25.0,19.6,8.0,15.0,10.6,5.0,86,68,55,0.00,40.00,10,3,17,0.55
2013-12-26,30.0,27.1,22.0,26.0,20.1,16.0,91,74,63,0.00,40.00,15,7,30,1.65
2013-12-27,40.0,33.9,24.0,27.0,24.7,17.0,79,68,58,0.00,40.00,9,4,16,1.10
2013-12-28,53.0,43.8,39.0,32.0,25.9,-99.9,61,52,44,0.00,40.00,12,4,18,0.00
2013-12-29,44.0,41.5,28.0,36.0,28.3,23.0,89,60,44,0.00,40.00,7,4,19,0.00
2013-12-30,27.0,19.9,17.0,24.0,14.4,10.0,90,79,70,0.00,40.00,5,2,11,2.20